| time (UTC) | temp F | wind direction | speed MPH | gust MPH | rain 1hr in | rain 24hr in | rain mn in | humidity % | barometer mb |
| 20260509200922 | 48 | 320 | 6.0 | 9.0 | 0.00 | 0.00 | 0.00 | 38 | 1004.7 |
| 20260509200417 | 50 | 359 | 4.0 | 6.0 | 0.00 | 0.00 | 0.00 | 37 | 1004.5 |
| 20260509195913 | 50 | 36 | 3.0 | 4.0 | 0.00 | 0.00 | 0.00 | 37 | 1004.4 |
| 20260509195408 | 51 | 268 | 5.0 | 7.0 | 0.00 | 0.00 | 0.00 | 37 | 1004.1 |
| 20260509194902 | 50 | 269 | 6.0 | 10.0 | 0.00 | 0.00 | 0.00 | 38 | 1004.2 |
| 20260509194359 | 49 | 22 | 5.0 | 7.0 | 0.00 | 0.00 | 0.00 | 40 | 1004.1 |
| 20260509193855 | 48 | 16 | 6.0 | 8.0 | 0.00 | 0.00 | 0.00 | 40 | 1004.1 |
| 20260509193350 | 48 | 319 | 4.0 | 7.0 | 0.00 | 0.00 | 0.00 | 41 | 1004.2 |
| 20260509192846 | 48 | 30 | 6.0 | 17.0 | 0.00 | 0.00 | 0.00 | 41 | 1003.9 |
| 20260509192343 | 49 | 9 | 9.0 | 14.0 | 0.00 | 0.00 | 0.00 | 39 | 1003.9 |
| 20260509191838 | 49 | 304 | 6.0 | 8.0 | 0.00 | 0.00 | 0.00 | 39 | 1003.5 |
| 20260509191334 | 49 | 340 | 4.0 | 4.0 | 0.00 | 0.00 | 0.00 | 39 | 1003.6 |
| 20260509190830 | 49 | 287 | 6.0 | 10.0 | 0.00 | 0.00 | 0.00 | 38 | 1003.5 |
| 20260509190327 | 50 | 293 | 5.0 | 7.0 | 0.00 | 0.00 | 0.00 | 37 | 1003.4 |
| 20260509185825 | 49 | 321 | 4.0 | 4.0 | 0.00 | 0.00 | 0.00 | 38 | 1003.3 |
| 20260509185321 | 50 | 342 | 8.0 | 11.0 | 0.00 | 0.00 | 0.00 | 37 | 1003.0 |
| 20260509184819 | 50 | 253 | 7.0 | 15.0 | 0.00 | 0.00 | 0.00 | 37 | 1003.1 |
| 20260509184315 | 50 | 302 | 8.0 | 14.0 | 0.00 | 0.00 | 0.00 | 37 | 1003.1 |
| 20260509183812 | 50 | 10 | 8.0 | 13.0 | 0.00 | 0.00 | 0.00 | 36 | 1002.7 |
| 20260509183307 | 51 | 17 | 7.0 | 11.0 | 0.00 | 0.00 | 0.00 | 36 | 1002.5 |
| 20260509182803 | 51 | 323 | 9.0 | 11.0 | 0.00 | 0.00 | 0.00 | 35 | 1002.4 |
| 20260509182300 | 51 | 275 | 2.0 | 2.0 | 0.00 | 0.00 | 0.00 | 35 | 1002.2 |
| 20260509181757 | 50 | 15 | 5.0 | 7.0 | 0.00 | 0.00 | 0.00 | 35 | 1002.2 |
| 20260509181255 | 50 | 305 | 4.0 | 7.0 | 0.00 | 0.00 | 0.00 | 35 | 1002.2 |
| 20260509180752 | 51 | 343 | 7.0 | 9.0 | 0.00 | 0.00 | 0.00 | 34 | 1001.9 |
| 20260509180248 | 52 | 287 | 6.0 | 8.0 | 0.00 | 0.00 | 0.00 | 33 | 1001.8 |
| 20260509175744 | 52 | 263 | 4.0 | 7.0 | 0.00 | 0.00 | 0.00 | 32 | 1001.8 |
| 20260509175241 | 51 | 272 | 5.0 | 7.0 | 0.00 | 0.00 | 0.00 | 33 | 1001.7 |
| 20260509174737 | 53 | 261 | 1.0 | 3.0 | 0.00 | 0.00 | 0.00 | 33 | 1001.4 |
| 20260509174232 | 52 | 239 | 3.0 | 4.0 | 0.00 | 0.00 | 0.00 | 32 | 1001.5 |
| 20260509173729 | 52 | 315 | 6.0 | 8.0 | 0.00 | 0.00 | 0.00 | 32 | 1001.2 |
| 20260509173224 | 53 | 294 | 4.0 | 7.0 | 0.00 | 0.00 | 0.00 | 32 | 1001.3 |
| 20260509172721 | 53 | 259 | 5.0 | 6.0 | 0.00 | 0.00 | 0.00 | 31 | 1001.0 |
| 20260509172217 | 53 | 299 | 8.0 | 11.0 | 0.00 | 0.00 | 0.00 | 31 | 1001.2 |
| 20260509171713 | 52 | 283 | 3.0 | 6.0 | 0.00 | 0.00 | 0.00 | 31 | 1001.3 |
| 20260509171209 | 53 | 325 | 11.0 | 14.0 | 0.00 | 0.00 | 0.00 | 30 | 1001.1 |
| 20260509170706 | 53 | 355 | 6.0 | 7.0 | 0.00 | 0.00 | 0.00 | 32 | 1001.2 |
| 20260509170202 | 55 | 315 | 7.0 | 14.0 | 0.00 | 0.00 | 0.00 | 30 | 1001.0 |
| 20260509165701 | 53 | 341 | 3.0 | 6.0 | 0.00 | 0.00 | 0.00 | 32 | 1000.9 |
| 20260509165156 | 52 | 328 | 5.0 | 6.0 | 0.00 | 0.00 | 0.00 | 31 | 1000.8 |
| 20260509164652 | 51 | 328 | 6.0 | 8.0 | 0.00 | 0.00 | 0.00 | 32 | 1000.5 |
| 20260509164148 | 51 | 6 | 8.0 | 11.0 | 0.00 | 0.00 | 0.00 | 31 | 1000.6 |
| 20260509163646 | 51 | 2 | 11.0 | 18.0 | 0.00 | 0.00 | 0.00 | 31 | 1000.8 |
| 20260509163142 | 52 | 357 | 4.0 | 7.0 | 0.00 | 0.00 | 0.00 | 31 | 1000.5 |
| 20260509162639 | 52 | 348 | 7.0 | 8.0 | 0.00 | 0.00 | 0.00 | 31 | 1000.4 |
| 20260509162135 | 51 | 337 | 4.0 | 4.0 | 0.00 | 0.00 | 0.00 | 32 | 1000.6 |
| 20260509161631 | 50 | 292 | 6.0 | 9.0 | 0.00 | 0.00 | 0.00 | 33 | 1000.6 |
| 20260509161126 | 50 | 3 | 4.0 | 6.0 | 0.00 | 0.00 | 0.00 | 33 | 1000.4 |
| 20260509160623 | 50 | 5 | 5.0 | 7.0 | 0.00 | 0.00 | 0.00 | 33 | 1000.5 |
| 20260509160118 | 50 | 344 | 4.0 | 6.0 | 0.00 | 0.00 | 0.00 | 33 | 1000.5 |
| 20260509155615 | 50 | 326 | 7.0 | 9.0 | 0.00 | 0.00 | 0.00 | 34 | 1000.5 |
| 20260509155111 | 49 | 4 | 9.0 | 11.0 | 0.00 | 0.00 | 0.00 | 34 | 1000.2 |
| 20260509154606 | 50 | 259 | 7.0 | 11.0 | 0.00 | 0.00 | 0.00 | 34 | 1000.2 |
| 20260509154104 | 49 | 357 | 8.0 | 13.0 | 0.00 | 0.00 | 0.00 | 34 | 1000.2 |
| 20260509153601 | 49 | 309 | 2.0 | 3.0 | 0.00 | 0.00 | 0.00 | 35 | 1000.0 |
| 20260509153058 | 49 | 265 | 3.0 | 3.0 | 0.00 | 0.00 | 0.00 | 35 | 1000.1 |
| 20260509152554 | 49 | 306 | 2.0 | 3.0 | 0.00 | 0.00 | 0.00 | 36 | 1000.2 |
| 20260509152051 | 49 | 339 | 6.0 | 8.0 | 0.00 | 0.00 | 0.00 | 35 | 1000.2 |
| 20260509151547 | 49 | 287 | 5.0 | 7.0 | 0.00 | 0.00 | 0.00 | 35 | 999.8 |
| 20260509151045 | 49 | 356 | 4.0 | 6.0 | 0.00 | 0.00 | 0.00 | 35 | 999.7 |
| 20260509150542 | 50 | 10 | 8.0 | 9.0 | 0.00 | 0.00 | 0.00 | 34 | 1000.0 |
| 20260509150035 | 50 | 312 | 5.0 | 7.0 | 0.00 | 0.00 | 0.00 | 34 | 999.7 |
| 20260509145530 | 50 | 301 | 6.0 | 10.0 | 0.00 | 0.00 | 0.00 | 33 | 999.5 |
| 20260509145026 | 50 | 262 | 5.0 | 6.0 | 0.00 | 0.00 | 0.00 | 33 | 999.7 |
| 20260509144523 | 50 | 329 | 3.0 | 6.0 | 0.00 | 0.00 | 0.00 | 35 | 999.4 |
| 20260509144020 | 50 | 281 | 5.0 | 9.0 | 0.00 | 0.00 | 0.00 | 35 | 999.3 |
| 20260509143517 | 50 | 250 | 3.0 | 4.0 | 0.00 | 0.00 | 0.00 | 36 | 999.3 |
| 20260509143015 | 50 | 277 | 6.0 | 8.0 | 0.00 | 0.00 | 0.00 | 35 | 999.2 |
| 20260509142510 | 49 | 5 | 5.0 | 9.0 | 0.00 | 0.00 | 0.00 | 36 | 999.0 |
| 20260509142006 | 49 | 313 | 5.0 | 8.0 | 0.00 | 0.00 | 0.00 | 36 | 999.1 |
| 20260509141503 | 49 | 310 | 6.0 | 8.0 | 0.00 | 0.00 | 0.00 | 37 | 999.1 |
| 20260509140959 | 48 | 317 | 5.0 | 7.0 | 0.00 | 0.00 | 0.00 | 38 | 999.0 |
| 20260509140455 | 48 | 13 | 5.0 | 7.0 | 0.00 | 0.00 | 0.00 | 39 | 999.2 |
| 20260509135954 | 48 | 8 | 4.0 | 6.0 | 0.00 | 0.00 | 0.00 | 40 | 999.0 |
| 20260509135451 | 48 | 334 | 2.0 | 2.0 | 0.00 | 0.00 | 0.00 | 40 | 999.1 |
| 20260509134948 | 48 | 335 | 2.0 | 2.0 | 0.00 | 0.00 | 0.00 | 41 | 999.0 |
| 20260509134446 | 48 | 7 | 3.0 | 3.0 | 0.00 | 0.00 | 0.00 | 40 | 999.0 |
| 20260509133943 | 48 | 352 | 3.0 | 6.0 | 0.00 | 0.00 | 0.00 | 40 | 999.0 |
| 20260509133439 | 48 | 359 | 6.0 | 9.0 | 0.00 | 0.00 | 0.00 | 39 | 998.9 |
| 20260509132938 | 49 | 307 | 5.0 | 7.0 | 0.00 | 0.00 | 0.00 | 38 | 998.9 |
| 20260509132435 | 49 | 332 | 5.0 | 9.0 | 0.00 | 0.00 | 0.00 | 38 | 998.9 |
| 20260509131932 | 48 | 12 | 6.0 | 9.0 | 0.00 | 0.00 | 0.00 | 38 | 998.9 |
| 20260509131429 | 48 | 302 | 5.0 | 7.0 | 0.00 | 0.00 | 0.00 | 40 | 999.0 |
| 20260509130926 | 48 | 36 | 5.0 | 8.0 | 0.00 | 0.00 | 0.00 | 43 | 999.0 |
| 20260509130421 | 48 | 283 | 4.0 | 4.0 | 0.00 | 0.00 | 0.00 | 43 | 999.0 |
| 20260509125919 | 48 | 277 | 2.0 | 3.0 | 0.00 | 0.00 | 0.00 | 45 | 999.0 |
| 20260509125415 | 47 | 312 | 3.0 | 4.0 | 0.00 | 0.00 | 0.00 | 48 | 998.7 |
| 20260509124911 | 47 | 344 | 4.0 | 7.0 | 0.00 | 0.00 | 0.00 | 47 | 998.8 |
| 20260509124408 | 47 | 259 | 3.0 | 4.0 | 0.00 | 0.00 | 0.00 | 48 | 998.6 |
| 20260509123906 | 47 | 326 | 1.0 | 2.0 | 0.00 | 0.00 | 0.00 | 49 | 998.7 |
| 20260509123403 | 47 | 1 | 4.0 | 6.0 | 0.00 | 0.00 | 0.00 | 48 | 998.8 |
| 20260509122859 | 47 | 261 | 4.0 | 7.0 | 0.00 | 0.00 | 0.00 | 48 | 998.7 |
| 20260509122356 | 46 | 322 | 2.0 | 3.0 | 0.00 | 0.00 | 0.00 | 48 | 998.6 |
| 20260509121852 | 46 | 285 | 2.0 | 2.0 | 0.00 | 0.00 | 0.00 | 49 | 998.7 |
| 20260509121350 | 46 | 317 | 3.0 | 3.0 | 0.00 | 0.00 | 0.00 | 49 | 998.4 |
| 20260509120848 | 46 | 263 | 3.0 | 3.0 | 0.00 | 0.00 | 0.00 | 49 | 998.6 |
| 20260509120345 | 46 | 1 | 4.0 | 6.0 | 0.00 | 0.00 | 0.00 | 50 | 998.4 |
| 20260509115843 | 46 | 294 | 4.0 | 6.0 | 0.00 | 0.00 | 0.00 | 50 | 998.2 |
| 20260509115340 | 45 | 296 | 1.0 | 1.0 | 0.00 | 0.00 | 0.00 | 54 | 998.3 |
| 20260509114838 | 45 | 310 | 1.0 | 1.0 | 0.00 | 0.00 | 0.00 | 55 | 998.3 |
| 20260509114336 | 45 | 309 | 1.0 | 2.0 | 0.00 | 0.00 | 0.00 | 54 | 998.1 |
| 20260509113835 | 44 | 331 | 0.0 | 0.0 | 0.00 | 0.00 | 0.00 | 54 | 998.1 |
| 20260509113332 | 44 | 331 | 0.0 | 0.0 | 0.00 | 0.00 | 0.00 | 54 | 998.1 |
| 20260509112829 | 44 | 6 | 2.0 | 2.0 | 0.00 | 0.00 | 0.00 | 54 | 998.0 |
| 20260509112326 | 44 | 299 | 2.0 | 2.0 | 0.00 | 0.00 | 0.00 | 55 | 998.0 |
| 20260509111823 | 44 | 357 | 1.0 | 2.0 | 0.00 | 0.00 | 0.00 | 55 | 998.0 |
| 20260509111320 | 44 | 325 | 0.0 | 0.0 | 0.00 | 0.00 | 0.00 | 55 | 998.0 |
| 20260509110818 | 44 | 324 | 4.0 | 4.0 | 0.00 | 0.00 | 0.00 | 54 | 997.9 |
| 20260509110313 | 44 | 358 | 0.0 | 0.0 | 0.00 | 0.00 | 0.00 | 56 | 997.8 |
| 20260509105812 | 44 | 344 | 0.0 | 0.0 | 0.00 | 0.00 | 0.00 | 57 | 997.9 |
| 20260509105310 | 44 | 349 | 1.0 | 1.0 | 0.00 | 0.00 | 0.00 | 56 | 997.8 |
| 20260509104806 | 44 | 329 | 1.0 | 1.0 | 0.00 | 0.00 | 0.00 | 57 | 997.9 |
| 20260509104303 | 44 | 303 | 1.0 | 1.0 | 0.00 | 0.00 | 0.00 | 57 | 998.1 |
| 20260509103801 | 44 | 312 | 1.0 | 2.0 | 0.00 | 0.00 | 0.00 | 57 | 997.9 |
| 20260509103258 | 44 | 341 | 0.0 | 1.0 | 0.00 | 0.00 | 0.00 | 58 | 998.0 |
| 20260509102756 | 44 | 12 | 4.0 | 4.0 | 0.00 | 0.00 | 0.00 | 57 | 997.4 |
| 20260509102253 | 44 | 338 | 2.0 | 3.0 | 0.00 | 0.00 | 0.00 | 58 | 997.6 |
| 20260509101749 | 44 | 0 | 2.0 | 2.0 | 0.00 | 0.00 | 0.00 | 58 | 997.7 |
| 20260509101245 | 43 | 315 | 3.0 | 3.0 | 0.00 | 0.00 | 0.00 | 61 | 997.8 |
| 20260509100743 | 42 | 300 | 1.0 | 1.0 | 0.00 | 0.00 | 0.00 | 64 | 997.9 |
| 20260509100240 | 42 | 323 | 0.0 | 1.0 | 0.00 | 0.00 | 0.00 | 66 | 997.8 |
| 20260509095736 | 41 | 314 | 2.0 | 2.0 | 0.00 | 0.00 | 0.00 | 67 | 997.6 |
| 20260509095234 | 41 | 313 | 0.0 | 1.0 | 0.00 | 0.00 | 0.00 | 67 | 997.8 |
| 20260509094731 | 41 | 318 | 0.0 | 0.0 | 0.00 | 0.00 | 0.00 | 68 | 997.7 |
| 20260509094228 | 41 | 297 | 1.0 | 1.0 | 0.00 | 0.00 | 0.00 | 69 | 998.0 |
| 20260509093726 | 41 | 323 | 1.0 | 1.0 | 0.00 | 0.00 | 0.00 | 70 | 997.7 |
| 20260509093223 | 40 | 302 | 1.0 | 2.0 | 0.00 | 0.00 | 0.00 | 73 | 997.7 |
| 20260509092721 | 38 | 313 | 0.0 | 1.0 | 0.00 | 0.00 | 0.00 | 75 | 997.7 |
| 20260509092219 | 36 | 325 | 0.0 | 1.0 | 0.00 | 0.00 | 0.00 | 81 | 997.7 |
| 20260509091717 | 36 | 344 | 1.0 | 1.0 | 0.00 | 0.00 | 0.00 | 85 | 997.3 |
| 20260509091212 | 35 | 339 | 0.0 | 0.0 | 0.00 | 0.00 | 0.00 | 87 | 997.4 |
| 20260509090710 | 35 | 313 | 1.0 | 1.0 | 0.00 | 0.00 | 0.00 | 88 | 997.7 |
| 20260509090207 | 35 | 312 | 0.0 | 0.0 | 0.00 | 0.00 | 0.00 | 87 | 997.6 |
| 20260509085705 | 35 | 312 | 0.0 | 0.0 | 0.00 | 0.00 | 0.00 | 86 | 997.4 |
| 20260509085201 | 35 | 312 | 0.0 | 0.0 | 0.00 | 0.00 | 0.00 | 87 | 997.9 |
| 20260509084658 | 35 | 312 | 0.0 | 0.0 | 0.00 | 0.00 | 0.00 | 87 | 997.8 |
| 20260509084155 | 35 | 312 | 0.0 | 0.0 | 0.00 | 0.00 | 0.00 | 87 | 997.6 |
| 20260509083653 | 35 | 312 | 0.0 | 0.0 | 0.00 | 0.00 | 0.00 | 86 | 997.4 |
| 20260509083149 | 35 | 312 | 0.0 | 0.0 | 0.00 | 0.00 | 0.00 | 86 | 997.8 |
| 20260509082646 | 35 | 313 | 0.0 | 0.0 | 0.00 | 0.00 | 0.00 | 87 | 997.6 |
| 20260509082143 | 35 | 312 | 0.0 | 0.0 | 0.00 | 0.00 | 0.00 | 87 | 997.7 |
| 20260509081640 | 34 | 319 | 0.0 | 0.0 | 0.00 | 0.00 | 0.00 | 87 | 997.9 |
| 20260509081137 | 34 | 29 | 0.0 | 0.0 | 0.00 | 0.00 | 0.00 | 86 | 997.6 |
| 20260509080635 | 34 | 29 | 0.0 | 0.0 | 0.00 | 0.00 | 0.00 | 86 | 997.4 |
| 20260509080133 | 34 | 28 | 0.0 | 0.0 | 0.00 | 0.00 | 0.00 | 85 | 997.4 |
| 20260509075631 | 33 | 29 | 0.0 | 0.0 | 0.00 | 0.00 | 0.00 | 86 | 997.4 |
| 20260509075128 | 33 | 29 | 0.0 | 0.0 | 0.00 | 0.00 | 0.00 | 87 | 997.7 |
| 20260509074625 | 33 | 29 | 0.0 | 0.0 | 0.00 | 0.00 | 0.00 | 87 | 997.8 |
| 20260509074121 | 33 | 29 | 0.0 | 0.0 | 0.00 | 0.00 | 0.00 | 87 | 997.7 |
| 20260509073618 | 33 | 29 | 0.0 | 0.0 | 0.00 | 0.00 | 0.00 | 85 | 998.0 |
| 20260509073114 | 33 | 29 | 0.0 | 0.0 | 0.00 | 0.00 | 0.00 | 85 | 998.0 |
| 20260509072611 | 33 | 29 | 0.0 | 0.0 | 0.00 | 0.00 | 0.00 | 84 | 997.9 |
| 20260509072108 | 33 | 29 | 0.0 | 0.0 | 0.00 | 0.00 | 0.00 | 87 | 998.2 |
| 20260509071605 | 33 | 29 | 0.0 | 0.0 | 0.00 | 0.00 | 0.00 | 86 | 998.1 |
| 20260509071102 | 33 | 29 | 0.0 | 0.0 | 0.00 | 0.00 | 0.00 | 85 | 998.2 |
| 20260509070559 | 33 | 29 | 0.0 | 0.0 | 0.00 | 0.00 | 0.00 | 85 | 998.3 |
| 20260509070055 | 32 | 29 | 0.0 | 0.0 | 0.00 | 0.00 | 0.00 | 86 | 998.4 |
| 20260509065551 | 32 | 29 | 0.0 | 0.0 | 0.00 | 0.00 | 0.00 | 84 | 998.3 |
| 20260509065047 | 32 | 29 | 0.0 | 0.0 | 0.00 | 0.00 | 0.00 | 87 | 998.6 |
| 20260509064545 | 31 | 29 | 0.0 | 0.0 | 0.00 | 0.00 | 0.00 | 88 | 998.5 |
| 20260509064043 | 31 | 29 | 0.0 | 0.0 | 0.00 | 0.00 | 0.00 | 89 | 998.7 |
| 20260509063538 | 31 | 29 | 0.0 | 0.0 | 0.00 | 0.00 | 0.00 | 88 | 998.7 |
| 20260509063036 | 30 | 29 | 0.0 | 0.0 | 0.00 | 0.00 | 0.00 | 88 | 998.6 |
| 20260509062533 | 30 | 29 | 0.0 | 0.0 | 0.00 | 0.00 | 0.00 | 89 | 998.6 |
| 20260509062030 | 30 | 29 | 0.0 | 0.0 | 0.00 | 0.00 | 0.00 | 88 | 998.8 |
| 20260509061527 | 31 | 29 | 0.0 | 0.0 | 0.00 | 0.00 | 0.00 | 88 | 998.8 |
| 20260509061024 | 31 | 29 | 0.0 | 0.0 | 0.00 | 0.00 | 0.00 | 86 | 998.7 |
| 20260509060522 | 31 | 29 | 0.0 | 0.0 | 0.00 | 0.00 | 0.00 | 88 | 998.9 |
| 20260509060017 | 31 | 29 | 0.0 | 0.0 | 0.00 | 0.00 | 0.00 | 87 | 999.1 |
| 20260509055513 | 31 | 29 | 0.0 | 0.0 | 0.00 | 0.00 | 0.00 | 87 | 999.2 |
| 20260509055009 | 30 | 29 | 0.0 | 0.0 | 0.00 | 0.00 | 0.00 | 85 | 999.4 |
| 20260509054506 | 31 | 29 | 0.0 | 0.0 | 0.00 | 0.00 | 0.00 | 86 | 999.4 |
| 20260509054004 | 31 | 29 | 0.0 | 0.0 | 0.00 | 0.00 | 0.00 | 85 | 999.5 |
| 20260509053502 | 31 | 29 | 0.0 | 0.0 | 0.00 | 0.00 | 0.00 | 85 | 999.3 |
| 20260509052959 | 31 | 29 | 0.0 | 0.0 | 0.00 | 0.00 | 0.00 | 84 | 999.3 |
| 20260509052456 | 32 | 29 | 0.0 | 0.0 | 0.00 | 0.00 | 0.00 | 85 | 999.5 |
| 20260509051954 | 32 | 29 | 0.0 | 0.0 | 0.00 | 0.00 | 0.00 | 83 | 999.7 |
| 20260509051452 | 32 | 29 | 0.0 | 0.0 | 0.00 | 0.00 | 0.00 | 82 | 999.4 |
| 20260509050949 | 33 | 29 | 0.0 | 0.0 | 0.00 | 0.00 | 0.00 | 83 | 999.7 |
| 20260509050445 | 33 | 29 | 0.0 | 0.0 | 0.00 | 0.00 | 0.00 | 83 | 999.6 |
| 20260509045942 | 33 | 29 | 0.0 | 0.0 | 0.00 | 0.00 | 0.00 | 83 | 999.8 |
| 20260509045439 | 34 | 29 | 0.0 | 0.0 | 0.00 | 0.00 | 0.00 | 82 | 999.8 |
| 20260509044936 | 34 | 29 | 0.0 | 0.0 | 0.00 | 0.00 | 0.00 | 79 | 1000.0 |
| 20260509044434 | 34 | 29 | 0.0 | 0.0 | 0.00 | 0.00 | 0.00 | 82 | 1000.2 |
| 20260509043931 | 34 | 29 | 0.0 | 0.0 | 0.00 | 0.00 | 0.00 | 82 | 1000.2 |
| 20260509043426 | 35 | 29 | 0.0 | 0.0 | 0.00 | 0.00 | 0.00 | 81 | 1000.2 |
| 20260509042922 | 35 | 29 | 0.0 | 0.0 | 0.00 | 0.00 | 0.00 | 81 | 1000.3 |
| 20260509042420 | 35 | 29 | 0.0 | 0.0 | 0.00 | 0.00 | 0.00 | 78 | 1000.4 |
| 20260509041915 | 35 | 29 | 0.0 | 0.0 | 0.00 | 0.00 | 0.00 | 77 | 1000.5 |
| 20260509041413 | 35 | 29 | 0.0 | 0.0 | 0.00 | 0.00 | 0.00 | 75 | 1000.6 |
| 20260509040911 | 35 | 29 | 0.0 | 0.0 | 0.00 | 0.00 | 0.00 | 79 | 1000.6 |
| 20260509040408 | 36 | 29 | 0.0 | 0.0 | 0.00 | 0.00 | 0.00 | 76 | 1000.7 |
| 20260509035905 | 36 | 29 | 0.0 | 0.0 | 0.00 | 0.00 | 0.00 | 74 | 1000.9 |
| 20260509035402 | 36 | 29 | 0.0 | 0.0 | 0.00 | 0.00 | 0.00 | 78 | 1001.1 |
| 20260509034858 | 37 | 29 | 0.0 | 0.0 | 0.00 | 0.00 | 0.00 | 73 | 1001.0 |
| 20260509034356 | 37 | 29 | 0.0 | 0.0 | 0.00 | 0.00 | 0.00 | 73 | 1001.1 |
| 20260509033853 | 37 | 29 | 0.0 | 0.0 | 0.00 | 0.00 | 0.00 | 75 | 1001.0 |
| 20260509033350 | 37 | 29 | 0.0 | 0.0 | 0.00 | 0.00 | 0.00 | 67 | 1001.2 |
| 20260509032846 | 38 | 29 | 0.0 | 0.0 | 0.00 | 0.00 | 0.00 | 73 | 1001.4 |
| 20260509032343 | 38 | 29 | 0.0 | 0.0 | 0.00 | 0.00 | 0.00 | 70 | 1001.4 |
| 20260509031842 | 39 | 29 | 0.0 | 0.0 | 0.00 | 0.00 | 0.00 | 68 | 1001.5 |
| 20260509031333 | 39 | 29 | 0.0 | 0.0 | 0.00 | 0.00 | 0.00 | 68 | 1001.3 |
| 20260509030831 | 40 | 29 | 0.0 | 0.0 | 0.00 | 0.00 | 0.00 | 65 | 1001.4 |
| 20260509030328 | 41 | 29 | 0.0 | 0.0 | 0.00 | 0.00 | 0.00 | 59 | 1001.6 |
| 20260509025825 | 42 | 29 | 0.0 | 0.0 | 0.00 | 0.00 | 0.00 | 58 | 1001.8 |
| 20260509025320 | 43 | 29 | 0.0 | 0.0 | 0.00 | 0.00 | 0.00 | 54 | 1001.6 |
| 20260509024816 | 44 | 29 | 0.0 | 0.0 | 0.00 | 0.00 | 0.00 | 52 | 1001.5 |
| 20260509024312 | 45 | 29 | 0.0 | 0.0 | 0.00 | 0.00 | 0.00 | 51 | 1001.5 |
| 20260509023810 | 46 | 29 | 0.0 | 1.0 | 0.00 | 0.00 | 0.00 | 48 | 1001.6 |
| 20260509023307 | 45 | 109 | 0.0 | 0.0 | 0.00 | 0.00 | 0.00 | 45 | 1001.7 |
| 20260509022803 | 45 | 108 | 2.0 | 2.0 | 0.00 | 0.00 | 0.00 | 46 | 1001.9 |
| 20260509022301 | 45 | 245 | 0.0 | 0.0 | 0.00 | 0.00 | 0.00 | 48 | 1002.0 |
| 20260509021757 | 45 | 240 | 2.0 | 3.0 | 0.00 | 0.00 | 0.00 | 48 | 1001.7 |
| 20260509021255 | 46 | 122 | 1.0 | 2.0 | 0.00 | 0.00 | 0.00 | 45 | 1002.0 |
| 20260509020752 | 46 | 351 | 0.0 | 0.0 | 0.00 | 0.00 | 0.00 | 47 | 1002.0 |
| 20260509020250 | 46 | 351 | 0.0 | 0.0 | 0.00 | 0.00 | 0.00 | 49 | 1002.2 |
| 20260509015747 | 47 | 79 | 0.0 | 0.0 | 0.00 | 0.00 | 0.00 | 48 | 1002.2 |
| 20260509015245 | 47 | 80 | 0.0 | 0.0 | 0.00 | 0.00 | 0.00 | 47 | 1002.0 |
| 20260509014741 | 48 | 80 | 0.0 | 0.0 | 0.00 | 0.00 | 0.00 | 44 | 1002.0 |
| 20260509014239 | 48 | 80 | 0.0 | 0.0 | 0.00 | 0.00 | 0.00 | 43 | 1002.0 |
| 20260509013735 | 49 | 44 | 1.0 | 1.0 | 0.00 | 0.00 | 0.00 | 41 | 1002.1 |
| 20260509013231 | 49 | 30 | 1.0 | 1.0 | 0.00 | 0.00 | 0.00 | 41 | 1002.0 |
| 20260509012728 | 49 | 93 | 0.0 | 0.0 | 0.00 | 0.00 | 0.00 | 42 | 1001.8 |
| 20260509012224 | 49 | 93 | 0.0 | 0.0 | 0.00 | 0.00 | 0.00 | 41 | 1001.9 |
| 20260509011722 | 50 | 93 | 0.0 | 0.0 | 0.00 | 0.00 | 0.00 | 43 | 1001.9 |
| 20260509011220 | 50 | 57 | 0.0 | 1.0 | 0.00 | 0.00 | 0.00 | 40 | 1001.8 |
| 20260509010717 | 50 | 30 | 0.0 | 0.0 | 0.00 | 0.00 | 0.00 | 41 | 1001.8 |
| 20260509010213 | 50 | 39 | 0.0 | 0.0 | 0.00 | 0.00 | 0.00 | 41 | 1001.9 |
| 20260509005711 | 50 | 110 | 0.0 | 0.0 | 0.00 | 0.00 | 0.00 | 41 | 1002.0 |
| 20260509005208 | 51 | 120 | 0.0 | 0.0 | 0.00 | 0.00 | 0.00 | 40 | 1001.7 |
| 20260509004702 | 51 | 64 | 1.0 | 1.0 | 0.00 | 0.00 | 0.00 | 38 | 1001.8 |
| 20260509004200 | 52 | 109 | 1.0 | 1.0 | 0.00 | 0.00 | 0.00 | 39 | 1001.8 |
| 20260509003658 | 52 | 90 | 0.0 | 1.0 | 0.00 | 0.00 | 0.00 | 40 | 1001.6 |
| 20260509003156 | 53 | 61 | 1.0 | 1.0 | 0.00 | 0.00 | 0.00 | 38 | 1001.7 |
| 20260509002653 | 53 | 47 | 0.0 | 0.0 | 0.00 | 0.00 | 0.00 | 37 | 1001.9 |
| 20260509002150 | 54 | 41 | 1.0 | 1.0 | 0.00 | 0.00 | 0.00 | 37 | 1001.6 |
| 20260509001648 | 55 | 228 | 1.0 | 1.0 | 0.00 | 0.00 | 0.00 | 34 | 1001.8 |
| 20260509001143 | 56 | 38 | 1.0 | 1.0 | 0.00 | 0.00 | 0.00 | 34 | 1001.7 |
| 20260509000641 | 57 | 290 | 0.0 | 1.0 | 0.00 | 0.00 | 0.00 | 31 | 1001.8 |
| 20260509000138 | 56 | 183 | 0.0 | 0.0 | 0.00 | 0.00 | 0.00 | 31 | 1001.9 |
| 20260508235636 | 57 | 148 | 1.0 | 2.0 | 0.00 | 0.00 | 0.00 | 36 | 1001.8 |
| 20260508235132 | 57 | 274 | 0.0 | 1.0 | 0.00 | 0.00 | 0.00 | 35 | 1001.8 |
| 20260508234629 | 57 | 320 | 1.0 | 1.0 | 0.00 | 0.00 | 0.00 | 31 | 1002.0 |
| 20260508234125 | 57 | 286 | 0.0 | 0.0 | 0.00 | 0.00 | 0.00 | 31 | 1002.1 |
| 20260508233625 | 57 | 286 | 0.0 | 0.0 | 0.00 | 0.00 | 0.00 | 29 | 1002.0 |
| 20260508233122 | 57 | 286 | 0.0 | 0.0 | 0.00 | 0.00 | 0.00 | 34 | 1001.9 |
| 20260508232619 | 57 | 285 | 0.0 | 0.0 | 0.00 | 0.00 | 0.00 | 33 | 1001.8 |
| 20260508232116 | 57 | 285 | 0.0 | 0.0 | 0.00 | 0.00 | 0.00 | 28 | 1002.0 |
| 20260508231614 | 57 | 286 | 0.0 | 0.0 | 0.00 | 0.00 | 0.00 | 28 | 1002.2 |
| 20260508231110 | 58 | 284 | 1.0 | 1.0 | 0.00 | 0.00 | 0.00 | 28 | 1002.0 |
| 20260508230607 | 58 | 286 | 0.0 | 0.0 | 0.00 | 0.00 | 0.00 | 28 | 1002.1 |
| 20260508230103 | 58 | 323 | 0.0 | 1.0 | 0.00 | 0.00 | 0.00 | 28 | 1002.1 |
| 20260508225601 | 58 | 266 | 0.0 | 1.0 | 0.00 | 0.00 | 0.00 | 27 | 1002.1 |
| 20260508225057 | 58 | 267 | 0.0 | 0.0 | 0.00 | 0.00 | 0.00 | 28 | 1002.2 |
| 20260508224555 | 58 | 291 | 1.0 | 1.0 | 0.00 | 0.00 | 0.00 | 27 | 1002.4 |
| 20260508224052 | 58 | 351 | 1.0 | 1.0 | 0.00 | 0.00 | 0.00 | 27 | 1002.1 |
| 20260508223550 | 58 | 222 | 2.0 | 2.0 | 0.00 | 0.00 | 0.00 | 26 | 1002.4 |
| 20260508223047 | 58 | 219 | 2.0 | 2.0 | 0.00 | 0.00 | 0.00 | 28 | 1002.4 |
| 20260508222544 | 58 | 267 | 1.0 | 1.0 | 0.00 | 0.00 | 0.00 | 27 | 1002.4 |
| 20260508222041 | 58 | 275 | 1.0 | 1.0 | 0.00 | 0.00 | 0.00 | 27 | 1002.4 |
| 20260508221538 | 59 | 298 | 2.0 | 2.0 | 0.00 | 0.00 | 0.00 | 27 | 1002.5 |
| 20260508221033 | 59 | 276 | 1.0 | 1.0 | 0.00 | 0.00 | 0.00 | 27 | 1002.4 |
| 20260508220531 | 59 | 221 | 1.0 | 1.0 | 0.00 | 0.00 | 0.00 | 25 | 1002.5 |
| 20260508220027 | 59 | 276 | 1.0 | 1.0 | 0.00 | 0.00 | 0.00 | 26 | 1002.5 |
| 20260508215524 | 59 | 342 | 0.0 | 0.0 | 0.00 | 0.00 | 0.00 | 26 | 1002.5 |
| 20260508215020 | 58 | 4 | 1.0 | 2.0 | 0.00 | 0.00 | 0.00 | 26 | 1002.6 |
| 20260508214518 | 58 | 290 | 4.0 | 6.0 | 0.00 | 0.00 | 0.00 | 26 | 1002.8 |
| 20260508214014 | 59 | 272 | 4.0 | 4.0 | 0.00 | 0.00 | 0.00 | 26 | 1002.6 |
| 20260508213512 | 59 | 320 | 3.0 | 3.0 | 0.00 | 0.00 | 0.00 | 26 | 1002.5 |
| 20260508213007 | 59 | 292 | 3.0 | 3.0 | 0.00 | 0.00 | 0.00 | 25 | 1002.7 |
| 20260508212504 | 58 | 264 | 2.0 | 2.0 | 0.00 | 0.00 | 0.00 | 26 | 1002.7 |
| 20260508212000 | 58 | 298 | 3.0 | 3.0 | 0.00 | 0.00 | 0.00 | 27 | 1002.8 |
| 20260508211455 | 58 | 342 | 2.0 | 2.0 | 0.00 | 0.00 | 0.00 | 27 | 1002.7 |
| 20260508210953 | 59 | 313 | 5.0 | 6.0 | 0.00 | 0.00 | 0.00 | 26 | 1002.7 |
| 20260508210449 | 59 | 244 | 1.0 | 1.0 | 0.00 | 0.00 | 0.00 | 26 | 1002.7 |
| 20260508205945 | 59 | 309 | 3.0 | 4.0 | 0.00 | 0.00 | 0.00 | 25 | 1002.6 |
| 20260508205443 | 59 | 320 | 3.0 | 4.0 | 0.00 | 0.00 | 0.00 | 26 | 1002.8 |
| 20260508204939 | 60 | 308 | 2.0 | 3.0 | 0.00 | 0.00 | 0.00 | 25 | 1002.9 |
| 20260508204437 | 61 | 333 | 4.0 | 6.0 | 0.00 | 0.00 | 0.00 | 25 | 1003.1 |
| 20260508203931 | 59 | 205 | 1.0 | 2.0 | 0.00 | 0.00 | 0.00 | 26 | 1002.8 |
| 20260508203428 | 59 | 295 | 6.0 | 7.0 | 0.00 | 0.00 | 0.00 | 25 | 1003.0 |
| 20260508202924 | 59 | 268 | 5.0 | 7.0 | 0.00 | 0.00 | 0.00 | 25 | 1003.2 |
| 20260508202422 | 59 | 288 | 2.0 | 2.0 | 0.00 | 0.00 | 0.00 | 26 | 1003.1 |
| 20260508201918 | 57 | 291 | 3.0 | 4.0 | 0.00 | 0.00 | 0.00 | 26 | 1003.3 |
| 20260508201415 | 58 | 273 | 2.0 | 3.0 | 0.00 | 0.00 | 0.00 | 26 | 1003.3 |